Impacts TAF Board
For situational awareness. Not to be used for flight planning purposes.
IDs:

KEWR - Newark Intl, NJ, US

Issued at 0843 UTC 21 Oct 2018
Updated at 0853 UTC 21 Oct 2018
Potential Impact None Slight Moderate High
Time<<21/21Z 21/22Z 21/23Z 22/00Z 22/01Z 22/02Z 22/03Z 22/04Z 22/05Z 22/06Z 22/07Z 22/08Z 22/09Z>>
Type PRVL PRVL PRVL PRVL PRVL PRVL PRVL PRVL PRVL PRVL PRVL PRVL PRVL
VIS >6 >6 >6 >6 >6 >6 >6 >6 >6 >6 >6 >6 >6
CIG -- -- -- -- -- -- -- -- -- -- -- -- --
Cover SCT FEW FEW FEW FEW FEW SCT SCT SCT SCT SCT FEW FEW
FltCat VFR VFR VFR VFR VFR VFR VFR VFR VFR VFR VFR VFR VFR
WX -- -- -- -- -- -- -- -- -- -- -- -- --
WDir 330 310 310 310 310 310 310 310 310 310 310 270 270
WSpd 22 15 15 15 13 13 10 10 10 10 10 6 6
WGst 33 25 25 25 20 20 -- -- -- -- -- -- --
Raw TAF
KEWR 210843Z 2109/2212 32018G25KT P6SM SCT030 BKN060
  TEMPO 2109/2113 BKN030
  FM211400 33022G33KT P6SM SCT050
  FM212200 31015G25KT P6SM FEW050
  FM220100 31013G20KT P6SM FEW050
  FM220300 31010KT P6SM SCT150
  FM220800 27006KT P6SM FEW150


METAR Board
Radar Display
Forecast Discussion
For situational awareness. Not to be used for flight planning purposes.